createdAt,value
2022-08-02T00:02:27.356Z,21.20
2022-08-02T00:04:55.598Z,21.27
2022-08-02T00:11:01.062Z,21.38
2022-08-02T00:53:37.989Z,20.69
2022-08-02T00:56:06.345Z,20.56
2022-08-02T00:58:35.251Z,20.53
2022-08-02T01:01:03.828Z,20.56
2022-08-02T01:03:32.173Z,20.61
2022-08-02T01:06:15.640Z,20.63
2022-08-02T01:08:45.146Z,20.83
2022-08-02T01:11:12.890Z,20.92
2022-08-02T01:13:40.808Z,21.04
2022-08-02T01:16:14.990Z,21.13
2022-08-02T01:18:46.874Z,21.10
2022-08-02T01:21:55.938Z,20.84
2022-08-02T01:24:43.434Z,20.82
2022-08-02T01:27:27.850Z,20.84
2022-08-02T01:30:01.920Z,20.88
2022-08-02T01:32:35.271Z,20.98
2022-08-02T01:35:09.603Z,21.06
2022-08-02T01:37:43.501Z,21.17
2022-08-02T01:40:16.082Z,21.18
2022-08-02T01:42:53.476Z,21.19
2022-08-02T01:45:25.987Z,21.30
2022-08-02T01:47:55.804Z,21.31
2022-08-02T01:50:28.949Z,21.41
2022-08-02T01:52:59.056Z,21.45
2022-08-02T01:55:34.970Z,21.45
2022-08-02T01:58:20.785Z,21.35
2022-08-02T02:00:52.536Z,21.34
2022-08-02T02:03:25.687Z,21.36
2022-08-02T02:05:57.619Z,21.26
2022-08-02T02:08:30.747Z,21.22
2022-08-02T02:12:06.295Z,21.06
2022-08-02T02:13:50.666Z,20.97
2022-08-02T02:16:20.893Z,20.85
2022-08-02T02:21:45.016Z,20.92
2022-08-02T02:24:13.241Z,20.91
2022-08-02T02:26:52.121Z,20.85
2022-08-02T02:29:24.524Z,20.91
2022-08-02T02:31:56.216Z,20.98
2022-08-02T02:34:28.714Z,20.98
2022-08-02T02:36:59.331Z,21.02
2022-08-02T02:39:29.628Z,20.99
2022-08-02T02:42:02.569Z,21.02
2022-08-02T02:44:32.113Z,21.00
2022-08-02T02:47:03.447Z,20.98
2022-08-02T02:49:40.621Z,20.98
2022-08-02T02:52:34.954Z,20.98
2022-08-02T02:55:20.627Z,21.12
2022-08-02T02:58:08.481Z,21.09
2022-08-02T03:01:07.815Z,21.17
2022-08-02T03:04:01.142Z,21.06
2022-08-02T03:06:29.147Z,21.17
2022-08-02T03:08:57.296Z,21.27
2022-08-02T03:11:29.755Z,21.42
2022-08-02T03:14:01.038Z,21.39
2022-08-02T03:16:29.695Z,21.45
2022-08-02T03:19:02.779Z,21.46
2022-08-02T03:21:33.264Z,21.38
2022-08-02T03:24:01.492Z,21.46
2022-08-02T03:26:29.424Z,21.23
2022-08-02T03:28:57.388Z,21.27
2022-08-02T03:31:25.396Z,21.39
2022-08-02T03:33:55.069Z,21.51
2022-08-02T03:36:27.096Z,21.43
2022-08-02T03:38:56.854Z,21.32
2022-08-02T03:41:25.469Z,21.51
2022-08-02T03:43:55.089Z,21.51
2022-08-02T03:46:25.374Z,21.49
2022-08-02T03:48:54.251Z,21.48
2022-08-02T03:51:22.831Z,21.38
2022-08-02T03:53:52.667Z,21.23
2022-08-02T03:56:23.459Z,21.14
2022-08-02T03:58:54.013Z,21.17
2022-08-02T04:01:22.087Z,21.24
2022-08-02T04:03:53.022Z,21.35
2022-08-02T04:06:27.174Z,21.54
2022-08-02T04:08:58.048Z,21.54
2022-08-02T04:11:38.170Z,21.50
2022-08-02T04:14:10.410Z,21.48
2022-08-02T04:16:45.265Z,21.46
2022-08-02T04:19:30.428Z,21.26
2022-08-02T04:22:04.835Z,21.22
2022-08-02T04:24:40.100Z,21.23
2022-08-02T04:27:48.914Z,21.15
2022-08-02T04:30:02.453Z,21.05
2022-08-02T04:32:31.493Z,21.16
2022-08-02T04:35:19.988Z,21.19
2022-08-02T04:38:09.729Z,21.28
2022-08-02T04:40:51.093Z,21.21
2022-08-02T04:43:19.215Z,21.14
2022-08-02T04:45:56.131Z,21.15
2022-08-02T04:48:29.704Z,21.04
2022-08-02T04:50:57.745Z,20.86
2022-08-02T04:53:25.771Z,20.69
2022-08-02T04:55:57.967Z,20.68
2022-08-02T05:01:01.523Z,20.78
2022-08-02T05:03:30.508Z,21.00
2022-08-02T05:06:00.785Z,20.92
2022-08-02T05:08:28.692Z,21.00
2022-08-02T05:10:57.849Z,21.00
2022-08-02T05:25:04.363Z,21.13
2022-08-02T05:30:33.468Z,21.34
2022-08-02T05:33:02.647Z,21.39
2022-08-02T05:35:35.207Z,21.39
2022-08-02T05:38:02.984Z,21.60
2022-08-02T05:40:31.652Z,21.30
2022-08-02T05:43:01.096Z,21.61
2022-08-02T05:45:29.006Z,21.73
2022-08-02T05:47:56.814Z,21.81
2022-08-02T05:50:24.706Z,21.74
2022-08-02T05:53:01.741Z,21.59
2022-08-02T05:55:35.176Z,21.68
2022-08-02T05:58:12.948Z,21.75
2022-08-02T06:00:42.811Z,21.74
2022-08-02T06:03:21.315Z,21.66
2022-08-02T06:05:54.803Z,21.87
2022-08-02T06:08:25.928Z,21.99
2022-08-02T06:10:58.207Z,21.94
2022-08-02T06:13:27.714Z,21.92
2022-08-02T06:15:59.363Z,21.92
2022-08-02T06:18:28.893Z,21.92
2022-08-02T06:20:59.325Z,21.81
2022-08-02T06:23:56.664Z,21.67
2022-08-02T06:26:26.824Z,21.67
2022-08-02T06:28:57.391Z,21.76
2022-08-02T06:31:25.845Z,21.82
2022-08-02T06:33:53.653Z,21.90
2022-08-02T06:36:28.830Z,21.98
2022-08-02T06:39:03.487Z,22.00
2022-08-02T06:41:36.994Z,21.86
2022-08-02T06:44:33.777Z,21.78
2022-08-02T06:47:10.342Z,21.77
2022-08-02T06:49:52.182Z,21.72
2022-08-02T06:52:27.859Z,21.84
2022-08-02T06:54:56.620Z,22.02
2022-08-02T06:57:24.387Z,22.19
2022-08-02T06:59:53.529Z,22.27
2022-08-02T07:02:21.511Z,22.47
2022-08-02T07:04:49.440Z,22.36
2022-08-02T07:07:17.355Z,22.31
2022-08-02T07:09:56.498Z,22.16
2022-08-02T07:12:30.586Z,22.32
2022-08-02T07:17:51.632Z,22.24
2022-08-02T07:20:20.369Z,22.44
2022-08-02T07:22:48.048Z,22.35
2022-08-02T07:25:15.944Z,22.65
2022-08-02T07:27:43.804Z,22.72
2022-08-02T07:30:12.492Z,22.79
2022-08-02T07:32:40.213Z,22.87
2022-08-02T07:35:10.194Z,22.97
2022-08-02T07:37:54.743Z,22.94
2022-08-02T07:40:26.193Z,22.96
2022-08-02T07:43:02.485Z,23.01
2022-08-02T07:45:32.001Z,22.89
2022-08-02T07:47:59.719Z,22.83
2022-08-02T07:50:29.951Z,22.94
2022-08-02T07:52:58.166Z,23.04
2022-08-02T07:55:40.082Z,23.14
2022-08-02T07:58:10.920Z,23.19
2022-08-02T08:00:40.888Z,23.25
2022-08-02T08:03:08.718Z,23.27
2022-08-02T08:05:37.894Z,23.33
2022-08-02T08:08:06.390Z,23.22
2022-08-02T08:10:34.292Z,23.33
2022-08-02T08:13:01.981Z,23.18
2022-08-02T08:15:29.668Z,23.06
2022-08-02T08:17:57.343Z,22.97
2022-08-02T08:20:25.297Z,23.23
2022-08-02T08:22:54.331Z,23.50
2022-08-02T08:25:22.219Z,23.50
2022-08-02T08:27:51.465Z,23.52
2022-08-02T08:30:19.715Z,23.51
2022-08-02T08:32:47.518Z,23.67
2022-08-02T08:35:15.535Z,23.65
2022-08-02T08:37:44.444Z,23.62
2022-08-02T08:40:19.233Z,23.59
2022-08-02T08:42:48.651Z,23.60
2022-08-02T08:45:17.908Z,23.71
2022-08-02T08:47:48.907Z,23.67
2022-08-02T08:50:24.770Z,23.54
2022-08-02T08:52:58.541Z,23.66
2022-08-02T08:55:29.116Z,23.71
2022-08-02T08:57:59.238Z,23.72
2022-08-02T09:00:27.981Z,23.72
2022-08-02T09:02:56.412Z,23.79
2022-08-02T09:05:25.343Z,23.83
2022-08-02T09:07:54.537Z,23.78
2022-08-02T09:10:41.630Z,23.71
2022-08-02T09:13:37.559Z,23.88
2022-08-02T09:16:12.294Z,23.91
2022-08-02T09:18:44.779Z,23.87
2022-08-02T09:21:15.199Z,23.94
2022-08-02T09:23:46.649Z,23.98
2022-08-02T09:26:18.878Z,23.81
2022-08-02T09:31:17.132Z,23.95
2022-08-02T09:33:47.827Z,23.96
2022-08-02T09:36:17.464Z,24.16
2022-08-02T09:38:55.105Z,24.06
2022-08-02T09:41:26.391Z,24.10
2022-08-02T09:44:05.027Z,24.22
2022-08-02T09:46:37.697Z,24.22
2022-08-02T09:49:09.335Z,24.24
2022-08-02T09:51:39.826Z,24.10
2022-08-02T09:54:09.801Z,24.20
2022-08-02T09:56:45.131Z,24.33
2022-08-02T09:59:13.523Z,24.38
2022-08-02T10:01:45.149Z,24.22
2022-08-02T10:04:23.908Z,24.37
2022-08-02T10:06:57.906Z,24.36
2022-08-02T10:09:28.577Z,24.45
2022-08-02T10:12:03.520Z,24.63
2022-08-02T10:14:34.819Z,24.72
2022-08-02T10:20:03.474Z,24.53
2022-08-02T10:22:34.888Z,24.63
2022-08-02T10:25:04.720Z,24.50
2022-08-02T10:27:55.476Z,24.45
2022-08-02T10:30:25.988Z,24.48
2022-08-02T10:32:56.471Z,24.41
2022-08-02T10:35:26.625Z,24.33
2022-08-02T10:37:58.232Z,24.49
2022-08-02T10:40:27.224Z,24.34
2022-08-02T10:43:01.018Z,24.45
2022-08-02T10:45:29.443Z,24.59
2022-08-02T10:48:06.051Z,24.47
2022-08-02T10:50:54.382Z,24.54
2022-08-02T10:53:30.471Z,24.56
2022-08-02T10:56:00.384Z,24.87
2022-08-02T10:58:32.283Z,24.97
2022-08-02T11:01:04.229Z,24.89
2022-08-02T11:03:41.059Z,24.99
2022-08-02T11:06:25.138Z,25.07
2022-08-02T11:09:32.449Z,25.32
2022-08-02T11:12:03.318Z,25.31
2022-08-02T11:14:33.934Z,25.28
2022-08-02T11:17:13.111Z,25.10
2022-08-02T11:20:17.944Z,24.97
2022-08-02T11:22:47.023Z,25.05
2022-08-02T11:26:02.746Z,24.88
2022-08-02T11:28:25.907Z,24.77
2022-08-02T11:31:03.083Z,24.96
2022-08-02T11:33:34.612Z,24.99
2022-08-02T11:36:04.443Z,24.80
2022-08-02T11:38:32.197Z,24.96
2022-08-02T11:41:06.160Z,25.04
2022-08-02T11:43:38.569Z,24.94
2022-08-02T11:46:14.111Z,24.89
2022-08-02T11:48:44.060Z,24.87
2022-08-02T11:51:14.042Z,24.85
2022-08-02T11:53:47.166Z,24.89
2022-08-02T11:56:24.912Z,24.87
2022-08-02T11:59:03.923Z,25.01
2022-08-02T12:01:36.163Z,25.06
2022-08-02T12:04:12.865Z,25.03
2022-08-02T12:06:40.782Z,25.16
2022-08-02T12:09:18.057Z,25.14
2022-08-02T12:11:49.855Z,25.10
2022-08-02T12:14:17.806Z,25.15
2022-08-02T12:17:04.934Z,25.45
2022-08-02T12:19:32.756Z,25.46
2022-08-02T12:22:12.700Z,25.32
2022-08-02T12:24:43.527Z,25.36
2022-08-02T12:27:11.294Z,25.48
2022-08-02T12:29:55.954Z,25.88
2022-08-02T12:32:28.238Z,25.69
2022-08-02T12:35:03.736Z,25.57
2022-08-02T12:37:31.740Z,25.48
2022-08-02T12:39:59.752Z,25.46
2022-08-02T12:42:27.479Z,25.45
2022-08-02T12:44:58.593Z,25.44
2022-08-02T12:47:31.174Z,25.39
2022-08-02T12:50:13.979Z,25.54
2022-08-02T12:52:41.769Z,25.50
2022-08-02T12:55:19.754Z,25.71
2022-08-02T12:57:59.363Z,26.00
2022-08-02T13:00:29.766Z,25.99
2022-08-02T13:02:59.920Z,25.81
2022-08-02T13:05:30.072Z,25.71
2022-08-02T13:08:18.210Z,25.64
2022-08-02T13:10:46.152Z,26.02
2022-08-02T13:13:13.954Z,25.85
2022-08-02T13:15:49.995Z,25.79
2022-08-02T13:18:19.992Z,25.87
2022-08-02T13:20:47.775Z,25.85
2022-08-02T13:23:21.847Z,25.76
2022-08-02T13:25:52.445Z,26.09
2022-08-02T13:28:20.778Z,26.33
2022-08-02T13:30:48.527Z,26.36
2022-08-02T13:33:17.248Z,26.17
2022-08-02T13:35:47.485Z,25.96
2022-08-02T13:38:15.425Z,25.83
2022-08-02T13:41:04.415Z,25.78
2022-08-02T13:43:53.413Z,25.78
2022-08-02T13:46:29.177Z,25.79
2022-08-02T13:48:57.492Z,25.92
2022-08-02T13:51:26.573Z,26.01
2022-08-02T13:53:54.285Z,26.17
2022-08-02T13:56:33.924Z,26.36
2022-08-02T13:59:55.283Z,26.87
2022-08-02T14:01:51.631Z,26.90
2022-08-02T14:04:19.322Z,26.91
2022-08-02T14:06:48.396Z,26.96
2022-08-02T14:09:17.097Z,26.80
2022-08-02T14:11:45.279Z,26.97
2022-08-02T14:14:16.603Z,27.03
2022-08-02T14:16:44.861Z,26.98
2022-08-02T14:19:16.039Z,27.09
2022-08-02T14:21:46.556Z,27.01
2022-08-02T14:24:17.581Z,26.95
2022-08-02T14:26:45.749Z,26.85
2022-08-02T14:29:14.024Z,27.41
2022-08-02T14:31:44.721Z,27.73
2022-08-02T14:34:13.257Z,27.91
2022-08-02T14:36:41.029Z,28.24
2022-08-02T14:39:08.792Z,28.55
2022-08-02T14:41:58.972Z,28.92
2022-08-02T14:44:25.761Z,29.34
2022-08-02T14:46:53.603Z,29.71
2022-08-02T14:49:25.748Z,30.01
2022-08-02T14:51:54.844Z,30.24
2022-08-02T14:54:30.127Z,30.41
2022-08-02T14:57:01.929Z,30.59
2022-08-02T14:59:30.911Z,30.68
2022-08-02T15:01:59.331Z,30.89
2022-08-02T15:04:27.759Z,31.20
2022-08-02T15:06:55.730Z,31.17
2022-08-02T15:09:23.623Z,30.92
2022-08-02T15:11:51.278Z,30.93
2022-08-02T15:14:26.004Z,31.00
2022-08-02T15:16:57.013Z,31.12
2022-08-02T15:19:25.856Z,31.45
2022-08-02T15:22:14.328Z,31.50
2022-08-02T15:24:45.096Z,31.77
2022-08-02T15:27:13.921Z,31.74
2022-08-02T15:29:44.420Z,31.96
2022-08-02T15:32:12.687Z,31.85
2022-08-02T15:34:41.057Z,31.73
2022-08-02T15:37:08.791Z,31.75
2022-08-02T15:39:37.043Z,31.68
2022-08-02T15:42:05.379Z,31.52
2022-08-02T15:44:33.112Z,31.53
2022-08-02T15:47:02.266Z,31.72
2022-08-02T15:49:30.062Z,31.66
2022-08-02T15:51:57.803Z,31.93
2022-08-02T15:54:25.615Z,31.75
2022-08-02T15:56:53.398Z,31.63
2022-08-02T15:59:21.119Z,31.69
2022-08-02T16:01:49.635Z,31.63
2022-08-02T16:10:05.076Z,31.36
2022-08-02T16:12:33.063Z,31.54
2022-08-02T16:15:00.919Z,31.35
2022-08-02T16:17:53.984Z,31.21
2022-08-02T16:20:19.969Z,31.09
2022-08-02T16:22:48.721Z,31.00
2022-08-02T16:25:17.262Z,30.98
2022-08-02T16:28:06.476Z,30.98
2022-08-02T16:30:33.108Z,31.45
2022-08-02T16:33:00.796Z,31.45
2022-08-02T16:35:30.121Z,31.75
2022-08-02T16:37:57.819Z,31.81
2022-08-02T16:40:25.544Z,31.81
2022-08-02T16:42:53.307Z,31.61
2022-08-02T16:45:22.564Z,31.33
2022-08-02T16:47:56.017Z,31.27
2022-08-02T16:50:27.263Z,31.17
2022-08-02T16:52:58.752Z,30.93
2022-08-02T16:55:29.335Z,30.86
2022-08-02T16:57:58.639Z,30.71
2022-08-02T17:00:28.765Z,30.81
2022-08-02T17:02:59.551Z,30.54
2022-08-02T17:05:29.769Z,30.44
2022-08-02T17:08:17.254Z,30.24
2022-08-02T17:10:45.590Z,30.15
2022-08-02T17:13:13.673Z,30.37
2022-08-02T17:16:07.575Z,30.36
2022-08-02T17:18:30.222Z,30.44
2022-08-02T17:20:58.086Z,30.30
2022-08-02T17:24:04.537Z,30.10
2022-08-02T17:26:14.963Z,29.99
2022-08-02T17:29:07.323Z,29.90
2022-08-02T17:31:37.325Z,29.54
2022-08-02T17:34:11.483Z,29.71
2022-08-02T17:36:39.368Z,29.68
2022-08-02T17:39:08.644Z,29.60
2022-08-02T17:41:39.057Z,29.48
2022-08-02T17:44:37.216Z,29.36
2022-08-02T17:47:06.428Z,29.21
2022-08-02T17:49:38.274Z,29.21
2022-08-02T17:52:49.395Z,29.05
2022-08-02T17:55:03.517Z,29.00
2022-08-02T17:57:55.555Z,28.94
2022-08-02T18:00:20.053Z,28.76
2022-08-02T18:02:52.908Z,28.63
2022-08-02T18:05:23.876Z,28.43
2022-08-02T18:08:07.438Z,28.37
2022-08-02T18:10:36.704Z,28.29
2022-08-02T18:13:05.276Z,28.34
2022-08-02T18:15:33.463Z,28.30
2022-08-02T18:18:01.250Z,28.24
2022-08-02T18:20:28.981Z,28.33
2022-08-02T18:22:58.670Z,28.31
2022-08-02T18:25:37.059Z,28.27
2022-08-02T18:28:15.335Z,28.14
2022-08-02T18:30:43.366Z,28.07
2022-08-02T18:33:57.414Z,28.02
2022-08-02T18:35:58.813Z,28.23
2022-08-02T18:38:28.355Z,28.15
2022-08-02T18:40:58.680Z,27.98
2022-08-02T18:43:29.485Z,27.99
2022-08-02T18:46:05.884Z,27.88
2022-08-02T18:48:44.173Z,27.87
2022-08-02T18:51:14.848Z,27.93
2022-08-02T18:53:43.110Z,27.92
2022-08-02T18:56:20.158Z,27.83
2022-08-02T18:58:54.449Z,27.83
2022-08-02T19:01:31.870Z,27.78
2022-08-02T19:04:02.151Z,27.63
2022-08-02T19:06:30.533Z,27.62
2022-08-02T19:09:06.067Z,27.63
2022-08-02T19:11:41.491Z,27.61
2022-08-02T19:14:24.034Z,27.49
2022-08-02T19:16:57.322Z,27.41
2022-08-02T19:19:29.055Z,27.35
2022-08-02T19:22:17.276Z,27.33
2022-08-02T19:24:46.343Z,27.27
2022-08-02T19:27:15.092Z,27.19
2022-08-02T19:29:50.751Z,27.16
2022-08-02T19:32:42.457Z,27.19
2022-08-02T19:35:19.153Z,27.10
2022-08-02T19:38:05.708Z,27.19
2022-08-02T19:40:33.950Z,27.22
2022-08-02T19:44:24.050Z,27.30
2022-08-02T19:45:51.684Z,27.55
2022-08-02T19:48:23.826Z,27.63
2022-08-02T19:50:56.070Z,27.59
2022-08-02T19:53:28.590Z,27.51
2022-08-02T19:56:01.435Z,27.45
2022-08-02T19:58:30.559Z,27.43
2022-08-02T20:01:00.160Z,27.38
2022-08-02T20:03:52.479Z,27.24
2022-08-02T20:06:17.858Z,27.06
2022-08-02T20:08:53.196Z,27.04
2022-08-02T20:11:35.131Z,27.11
2022-08-02T20:14:04.574Z,27.16
2022-08-02T20:16:34.442Z,27.06
2022-08-02T20:19:02.866Z,26.90
2022-08-02T20:21:36.677Z,26.76
2022-08-02T20:24:06.166Z,26.82
2022-08-02T20:26:35.152Z,26.89
2022-08-02T20:29:03.838Z,26.83
2022-08-02T20:31:33.150Z,26.68
2022-08-02T20:34:01.179Z,26.56
2022-08-02T20:36:29.639Z,26.50
2022-08-02T20:38:57.395Z,26.55
2022-08-02T20:41:37.307Z,26.67
2022-08-02T20:44:15.478Z,26.64
2022-08-02T20:46:59.459Z,26.63
2022-08-02T20:49:41.052Z,26.56
2022-08-02T20:52:23.357Z,26.51
2022-08-02T20:54:52.621Z,26.39
2022-08-02T20:57:20.396Z,26.36
2022-08-02T21:00:09.140Z,26.28
2022-08-02T21:02:38.250Z,26.25
2022-08-02T21:05:17.403Z,26.41
2022-08-02T21:07:47.761Z,26.72
2022-08-02T21:10:23.919Z,26.79
2022-08-02T21:12:51.997Z,26.59
2022-08-02T21:15:19.808Z,26.29
2022-08-02T21:17:51.945Z,26.15
2022-08-02T21:20:32.254Z,26.01
2022-08-02T21:23:00.324Z,25.94
2022-08-02T21:25:50.760Z,25.95
2022-08-02T21:28:17.381Z,26.02
2022-08-02T21:30:45.989Z,26.08
2022-08-02T21:33:17.785Z,26.00
2022-08-02T21:35:52.181Z,25.90
2022-08-02T21:38:35.446Z,25.81
2022-08-02T21:41:06.930Z,25.91
2022-08-02T21:43:40.370Z,26.06
2022-08-02T21:46:11.651Z,26.17
2022-08-02T21:48:43.706Z,26.01
2022-08-02T21:51:15.731Z,25.82
2022-08-02T21:53:43.863Z,25.78
2022-08-02T21:56:31.540Z,25.77
2022-08-02T21:58:59.996Z,25.86
2022-08-02T22:01:28.445Z,25.92
2022-08-02T22:04:00.151Z,25.96
2022-08-02T22:06:27.920Z,25.99
2022-08-02T22:08:56.437Z,25.95
2022-08-02T22:11:24.158Z,26.02
2022-08-02T22:13:53.789Z,26.03
2022-08-02T22:16:22.811Z,26.09
2022-08-02T22:18:52.535Z,26.12
2022-08-02T22:21:22.838Z,26.09
2022-08-02T22:23:51.289Z,26.06
2022-08-02T22:26:19.751Z,25.94
2022-08-02T22:28:51.070Z,25.97
2022-08-02T22:31:41.379Z,26.08
2022-08-02T22:34:11.533Z,26.11
2022-08-02T22:36:56.235Z,26.00
2022-08-02T22:39:23.924Z,25.95
2022-08-02T22:42:06.241Z,25.79
2022-08-02T22:44:35.288Z,25.74
2022-08-02T22:47:07.103Z,25.63
2022-08-02T22:49:51.945Z,25.43
2022-08-02T22:52:24.135Z,25.32
2022-08-02T22:54:51.860Z,25.43
2022-08-02T22:57:30.086Z,25.63
2022-08-02T22:59:59.425Z,25.90
2022-08-02T23:02:27.488Z,25.88
2022-08-02T23:04:55.495Z,25.90
2022-08-02T23:07:25.196Z,25.95
2022-08-02T23:09:53.762Z,25.97
2022-08-02T23:12:21.490Z,25.91
2022-08-02T23:18:02.552Z,25.86
2022-08-02T23:20:30.831Z,25.86
2022-08-02T23:23:00.003Z,25.78
2022-08-02T23:25:29.013Z,25.69
2022-08-02T23:27:56.704Z,25.60
2022-08-02T23:30:24.384Z,25.58
2022-08-02T23:32:52.116Z,25.60
2022-08-02T23:35:19.839Z,25.56
2022-08-02T23:38:00.489Z,25.48
2022-08-02T23:40:40.285Z,25.40
2022-08-02T23:43:14.536Z,25.36
2022-08-02T23:45:44.091Z,25.30
2022-08-02T23:48:11.769Z,25.23
2022-08-02T23:50:39.536Z,25.19
2022-08-02T23:53:07.270Z,25.11
2022-08-02T23:55:36.313Z,25.07
2022-08-02T23:58:04.050Z,24.91
